Stony Plain, Canada
Current Conditions -  °F | °C
As of 5:00 AM on Wednesday 28 Jan 2015 (Local Time) from CZVL Reporting Station
Few Clouds Few Clouds  
Wind Chill: -4°   Ceiling: Unl
Heat Index:   Visibility: 9mi
Dew Point: -1°   Wind: 8mph
Humidity: 93%   Direction: 290°WNW
Pressure: 30.02"   Gusts: NA
Location:  53.53°N, 114.01°W
Report Text: CZVL 281200Z AUTO 29007KT 9SM FEW090 00/M01 A3002 RMK SLP196
Loading
Personal Weather Stations






























Interactive Weather Map New forecast layout! Learn more

10-Day Weather Forecast

Advertisements
Track Severe Weather on mobile